Time;durP1;ratioP1;P1;durP2;ratioP2;P2;SDS_P1;SDS_P2;PMS_P1;PMS_P2;Temp;Humidity;BMP_temperature;BMP_pressure;BME280_temperature;BME280_humidity;BME280_pressure;Samples;Min_cycle;Max_cycle;Signal;HPM_P1;HPM_P2
2021/01/11 00:01:45;;;;;;;37.15;27.02;;;;;;;2.99;94.65;102137.84;4930847;28;20739;-79
2021/01/11 00:04:11;;;;;;;41.20;28.40;;;;;;;3.33;94.41;102181.97;4934547;29;20046;-79
2021/01/11 00:06:46;;;;;;;40.78;27.40;;;;;;;3.38;94.38;102176.50;4939488;28;20041;-73
2021/01/11 00:09:11;;;;;;;38.90;27.75;;;;;;;3.43;93.87;102174.47;4955685;28;20069;-79
2021/01/11 00:11:38;;;;;;;37.30;26.58;;;;;;;3.12;94.00;102138.16;4939087;28;20498;-73
2021/01/11 00:14:05;;;;;;;43.83;28.20;;;;;;;3.11;93.81;102139.94;4924496;29;20027;-78
2021/01/11 00:16:31;;;;;;;44.50;29.77;;;;;;;3.26;93.94;102159.44;4957407;28;20039;-78
2021/01/11 00:18:56;;;;;;;43.17;29.77;;;;;;;3.35;93.97;102177.47;4927872;29;20027;-78
2021/01/11 00:21:22;;;;;;;43.50;29.52;;;;;;;3.35;93.71;102168.72;4941245;28;20042;-79
2021/01/11 00:23:49;;;;;;;43.38;28.13;;;;;;;3.34;94.48;102154.66;4936420;28;20792;-78
2021/01/11 00:26:14;;;;;;;40.25;28.33;;;;;;;3.14;93.71;102115.19;4936372;28;20131;-79
2021/01/11 00:28:40;;;;;;;42.13;28.55;;;;;;;3.26;94.04;102134.88;4940103;28;20118;-74
2021/01/11 00:31:05;;;;;;;43.65;28.95;;;;;;;3.24;94.31;102132.28;4954681;28;20157;-78
2021/01/11 00:33:31;;;;;;;41.55;28.30;;;;;;;3.13;94.05;102098.50;4952219;28;20035;-78
2021/01/11 00:35:57;;;;;;;41.38;29.10;;;;;;;3.37;94.25;102143.13;4921260;29;20397;-80
2021/01/11 00:38:22;;;;;;;41.72;28.90;;;;;;;3.39;93.80;102146.53;4937696;28;20793;-78
2021/01/11 00:40:48;;;;;;;41.60;28.65;;;;;;;3.40;93.66;102147.38;4928096;28;20235;-78
2021/01/11 00:43:13;;;;;;;41.42;28.05;;;;;;;3.40;93.82;102136.81;4938247;28;20039;-78
2021/01/11 00:45:39;;;;;;;46.22;29.38;;;;;;;3.25;93.55;102117.31;4939152;28;20042;-77
2021/01/11 00:48:05;;;;;;;43.58;29.63;;;;;;;3.24;93.75;102120.91;4916436;28;20062;-79
2021/01/11 00:50:30;;;;;;;45.78;31.02;;;;;;;3.41;93.87;102146.47;4924102;29;20514;-78
2021/01/11 00:52:56;;;;;;;43.97;29.48;;;;;;;3.40;93.71;102155.28;4923941;29;20030;-78
2021/01/11 00:55:21;;;;;;;46.17;30.70;;;;;;;3.43;94.04;102153.34;4933530;29;20339;-79
2021/01/11 00:57:47;;;;;;;49.05;31.40;;;;;;;3.33;93.79;102157.38;4932283;28;20520;-78
2021/01/11 01:00:13;;;;;;;45.65;30.88;;;;;;;3.35;93.60;102152.88;4923462;29;20039;-78
2021/01/11 01:02:38;;;;;;;45.60;31.77;;;;;;;3.33;93.89;102152.94;4939132;28;20027;-73
2021/01/11 01:05:09;;;;;;;49.22;31.80;;;;;;;3.37;94.59;102149.22;4919848;29;20042;-78
2021/01/11 01:07:37;;;;;;;50.67;33.03;;;;;;;3.35;94.13;102148.44;4932503;28;20053;-80
2021/01/11 01:10:04;;;;;;;53.35;33.55;;;;;;;3.34;94.14;102137.97;4942721;29;20089;-77
2021/01/11 01:12:30;;;;;;;51.70;33.72;;;;;;;3.35;93.72;102145.81;4935664;28;20074;-81
2021/01/11 01:14:55;;;;;;;53.03;32.92;;;;;;;3.40;93.65;102136.81;4933863;28;20150;-78
2021/01/11 01:17:21;;;;;;;52.65;34.92;;;;;;;3.36;94.25;102136.97;4931627;28;20494;-78
2021/01/11 01:19:46;;;;;;;57.47;35.95;;;;;;;3.41;94.06;102135.91;4955375;28;20888;-78
2021/01/11 01:22:12;;;;;;;56.00;36.42;;;;;;;3.40;94.19;102142.09;4937239;28;20033;-78
2021/01/11 01:24:37;;;;;;;61.75;37.80;;;;;;;3.36;93.87;102134.31;4950266;28;20599;-78
2021/01/11 01:27:03;;;;;;;57.50;38.05;;;;;;;3.39;94.36;102132.47;4941808;28;20735;-78
2021/01/11 01:29:28;;;;;;;58.30;37.50;;;;;;;3.27;94.33;102121.59;4938429;28;20035;-78
2021/01/11 01:31:54;;;;;;;59.72;38.78;;;;;;;3.39;93.70;102122.78;4916249;29;20043;-78
2021/01/11 01:34:19;;;;;;;57.70;37.58;;;;;;;3.37;93.70;102124.66;4937716;28;20081;-78
2021/01/11 01:36:45;;;;;;;65.25;39.60;;;;;;;3.34;94.45;102135.34;4939528;29;20089;-80
2021/01/11 01:39:10;;;;;;;63.63;40.10;;;;;;;3.09;93.84;102083.75;4950097;28;20038;-77
2021/01/11 01:41:36;;;;;;;65.25;40.38;;;;;;;3.36;94.34;102126.41;4934729;28;20039;-77
2021/01/11 01:44:01;;;;;;;61.15;39.17;;;;;;;3.41;93.94;102122.69;4932561;28;20043;-77
2021/01/11 01:46:28;;;;;;;63.85;40.13;;;;;;;3.41;93.58;102125.34;4920835;28;20409;-77
2021/01/11 01:48:54;;;;;;;66.18;40.60;;;;;;;3.37;93.80;102128.13;4936620;29;20051;-78
2021/01/11 01:51:19;;;;;;;63.55;40.92;;;;;;;3.43;93.93;102116.41;4935361;28;20053;-78
2021/01/11 01:53:45;;;;;;;61.72;38.85;;;;;;;3.41;93.40;102120.91;4927206;28;20507;-78
2021/01/11 01:56:12;;;;;;;63.92;39.72;;;;;;;3.28;93.49;102099.56;4933591;28;20449;-78
2021/01/11 01:58:38;;;;;;;62.63;39.03;;;;;;;3.31;93.44;102095.91;4917578;29;20031;-73
2021/01/11 02:01:03;;;;;;;64.88;41.00;;;;;;;3.38;94.15;102105.25;4923269;29;20577;-79
2021/01/11 02:03:29;;;;;;;59.67;39.17;;;;;;;3.36;93.60;102105.31;4936198;28;20097;-78
2021/01/11 02:05:54;;;;;;;66.68;41.90;;;;;;;3.23;94.33;102083.09;4937611;28;20041;-73
2021/01/11 02:08:40;;;;;;;62.78;40.22;;;;;;;3.14;93.89;102065.06;4947295;28;20039;-78
2021/01/11 02:11:23;;;;;;;66.28;41.05;;;;;;;3.33;94.38;102100.16;4937637;29;20101;-78
2021/01/11 02:14:14;;;;;;;66.78;41.38;;;;;;;3.32;94.16;102100.25;4935080;28;20016;-78
2021/01/11 02:17:18;;;;;;;69.00;42.10;;;;;;;3.33;94.19;102107.25;4940019;28;20430;-78
2021/01/11 02:20:11;;;;;;;70.80;42.88;;;;;;;3.30;94.59;102107.38;4934607;28;20509;-79
2021/01/11 02:22:44;;;;;;;70.95;42.92;;;;;;;3.27;94.93;102104.88;4939111;28;20039;-78
2021/01/11 02:25:38;;;;;;;69.78;42.88;;;;;;;3.25;94.24;102099.69;4922796;28;20047;-78
2021/01/11 02:28:26;;;;;;;66.28;42.30;;;;;;;3.27;94.82;102094.34;4937452;28;22455;-78
2021/01/11 02:30:52;;;;;;;66.78;41.08;;;;;;;3.30;94.27;102100.34;4943665;28;20126;-78
2021/01/11 02:33:17;;;;;;;69.07;42.13;;;;;;;3.29;94.58;102097.75;4926688;28;20042;-79
2021/01/11 02:35:49;;;;;;;67.88;43.08;;;;;;;3.32;94.35;102087.94;4944020;29;20138;-79
2021/01/11 02:38:15;;;;;;;66.85;41.67;;;;;;;3.30;94.13;102071.31;4942450;28;20031;-78
2021/01/11 02:40:41;;;;;;;63.90;40.88;;;;;;;3.39;93.91;102090.25;4952091;28;20409;-78
2021/01/11 02:43:07;;;;;;;66.55;41.95;;;;;;;3.33;94.12;102080.84;4932688;28;20041;-78
2021/01/11 02:45:33;;;;;;;70.28;41.42;;;;;;;3.39;93.72;102083.22;4948948;28;20358;-78
2021/01/11 02:48:05;;;;;;;69.63;41.30;;;;;;;3.39;93.64;102085.84;4942793;28;20027;-78
2021/01/11 02:50:42;;;;;;;67.30;42.22;;;;;;;3.05;94.48;102037.34;4936801;28;20054;-78
2021/01/11 02:53:31;;;;;;;68.57;41.42;;;;;;;3.08;94.28;102046.91;4941592;28;20035;-78
2021/01/11 02:56:04;;;;;;;74.68;43.70;;;;;;;3.18;94.38;102069.28;4907103;29;20027;-79
2021/01/11 02:58:36;;;;;;;73.50;43.08;;;;;;;3.29;95.04;102092.47;4939856;28;20087;-79
2021/01/11 03:01:02;;;;;;;69.72;43.33;;;;;;;3.28;94.56;102085.50;4935848;28;20593;-78
2021/01/11 03:03:28;;;;;;;69.03;42.95;;;;;;;3.38;94.08;102089.41;4924738;29;20015;-78
2021/01/11 03:05:54;;;;;;;73.13;42.67;;;;;;;3.34;94.21;102088.69;4943526;28;20082;-79
2021/01/11 03:08:23;;;;;;;77.88;44.72;;;;;;;3.19;94.48;102060.44;4939310;28;20041;-78
2021/01/11 03:10:51;;;;;;;76.97;44.22;;;;;;;3.13;95.04;102060.72;4940151;28;20101;-78
2021/01/11 03:13:17;;;;;;;76.80;45.80;;;;;;;3.31;95.53;102096.78;4941822;28;20509;-78
2021/01/11 03:15:42;;;;;;;81.95;46.83;;;;;;;3.24;94.75;102087.44;4953342;28;20035;-78
2021/01/11 03:18:08;;;;;;;81.90;47.63;;;;;;;3.31;95.46;102080.94;4947698;28;20312;-78
2021/01/11 03:20:33;;;;;;;82.70;46.75;;;;;;;3.33;95.76;102088.78;4949304;28;20498;-78
2021/01/11 03:22:59;;;;;;;84.00;47.40;;;;;;;3.31;95.09;102072.16;4943395;28;20038;-74
2021/01/11 03:25:26;;;;;;;88.65;47.80;;;;;;;3.30;95.63;102067.81;4944352;29;20130;-77
2021/01/11 03:27:51;;;;;;;84.55;47.95;;;;;;;3.28;95.59;102078.44;4947236;29;20039;-77
2021/01/11 03:30:17;;;;;;;84.00;47.13;;;;;;;3.32;95.37;102077.38;4936930;28;20028;-77
2021/01/11 03:32:43;;;;;;;86.32;47.00;;;;;;;3.36;94.80;102078.06;4946202;28;20124;-77
2021/01/11 03:35:08;;;;;;;94.00;50.72;;;;;;;3.22;95.33;102066.41;4938733;28;20027;-78
2021/01/11 03:37:34;;;;;;;92.60;50.67;;;;;;;3.14;95.42;102055.38;4948053;28;20063;-77
2021/01/11 03:39:59;;;;;;;90.25;48.53;;;;;;;3.33;95.46;102083.50;4941406;28;20035;-77
2021/01/11 03:42:25;;;;;;;86.45;49.60;;;;;;;3.37;95.35;102077.97;4945878;29;20114;-77
2021/01/11 03:44:50;;;;;;;88.68;49.63;;;;;;;3.38;95.76;102081.50;4940180;28;20062;-77
2021/01/11 03:47:17;;;;;;;97.28;51.15;;;;;;;3.35;95.66;102082.47;4941986;28;20413;-78
2021/01/11 03:49:43;;;;;;;96.80;50.60;;;;;;;3.32;95.33;102076.50;4915861;29;20588;-77
2021/01/11 03:52:08;;;;;;;100.82;51.90;;;;;;;3.35;95.48;102073.72;4941867;28;20125;-74
2021/01/11 03:54:34;;;;;;;112.57;51.80;;;;;;;3.22;95.50;102050.59;4926124;29;20039;-78
2021/01/11 03:56:59;;;;;;;99.60;53.53;;;;;;;3.31;95.62;102053.69;4937257;28;20039;-73
2021/01/11 03:59:25;;;;;;;100.38;51.47;;;;;;;3.35;95.69;102039.41;4933543;28;20130;-78
2021/01/11 04:01:51;;;;;;;103.55;53.05;;;;;;;3.29;95.64;102039.72;4938897;28;20053;-78
2021/01/11 04:04:16;;;;;;;111.20;54.13;;;;;;;3.21;96.20;102035.69;4954297;28;20046;-74
2021/01/11 04:06:42;;;;;;;107.75;54.45;;;;;;;3.28;96.35;102035.38;4937117;28;20490;-78
2021/01/11 04:09:08;;;;;;;109.78;54.90;;;;;;;3.26;96.29;102043.38;4939303;28;20667;-78
2021/01/11 04:11:33;;;;;;;108.10;54.03;;;;;;;3.30;96.31;102031.75;4942569;28;20482;-77
2021/01/11 04:13:59;;;;;;;110.60;56.72;;;;;;;3.33;96.36;102036.00;4940467;28;20039;-78
2021/01/11 04:16:25;;;;;;;109.47;54.03;;;;;;;3.37;96.26;102027.00;4941453;28;20079;-77
2021/01/11 04:18:51;;;;;;;111.88;54.85;;;;;;;3.22;96.08;102008.38;4940479;28;20058;-73
2021/01/11 04:21:17;;;;;;;113.07;56.92;;;;;;;3.34;96.26;102020.06;4939619;28;20042;-77
2021/01/11 04:23:42;;;;;;;111.65;54.25;;;;;;;3.32;95.85;102014.06;4920667;29;20027;-77
2021/01/11 04:26:08;;;;;;;114.15;55.33;;;;;;;3.26;96.63;102009.06;4942018;28;20031;-77
2021/01/11 04:28:33;;;;;;;116.82;56.50;;;;;;;3.31;96.42;102006.19;4937357;28;20481;-77
2021/01/11 04:30:59;;;;;;;117.28;56.97;;;;;;;3.32;96.15;102008.78;4924482;28;20187;-78
2021/01/11 04:33:24;;;;;;;114.78;57.05;;;;;;;3.34;96.47;102004.25;4956528;28;20039;-77
2021/01/11 04:35:50;;;;;;;114.28;55.33;;;;;;;3.40;95.56;102003.09;4940712;28;20114;-77
2021/01/11 04:38:16;;;;;;;112.47;56.25;;;;;;;2.81;96.16;101897.88;4940154;28;20031;-74
2021/01/11 04:40:42;;;;;;;107.60;54.30;;;;;;;3.39;95.88;102004.03;4941224;28;20126;-77
2021/01/11 04:43:18;;;;;;;106.72;54.78;;;;;;;3.36;95.95;102002.38;4939408;28;20675;-77
2021/01/11 04:45:43;;;;;;;106.20;52.67;;;;;;;3.35;95.79;101999.84;4934404;28;20059;-77
2021/01/11 04:48:10;;;;;;;105.70;54.78;;;;;;;3.24;96.23;101975.78;4931293;28;20035;-77
2021/01/11 04:50:36;;;;;;;101.55;54.22;;;;;;;2.82;96.03;101899.59;4939534;28;20066;-73
2021/01/11 04:53:07;;;;;;;100.22;51.00;;;;;;;3.36;95.86;101994.47;4935887;28;20624;-73
2021/01/11 04:55:34;;;;;;;100.05;51.35;;;;;;;3.38;96.29;101991.78;4941304;28;20050;-77
2021/01/11 04:58:00;;;;;;;100.43;53.08;;;;;;;3.39;95.96;101989.97;4937133;28;20516;-77
2021/01/11 05:00:29;;;;;;;91.63;51.60;;;;;;;3.41;96.28;101993.41;4923390;29;20031;-77
2021/01/11 05:03:10;;;;;;;99.63;51.28;;;;;;;3.32;95.81;101970.97;4942862;28;20015;-77
2021/01/11 05:05:37;;;;;;;92.53;49.55;;;;;;;3.26;95.67;101956.31;4938986;28;20046;-77
2021/01/11 05:08:03;;;;;;;93.75;50.55;;;;;;;3.40;95.98;101979.34;4924009;29;20180;-77
2021/01/11 05:10:32;;;;;;;88.38;48.03;;;;;;;3.15;95.59;101924.34;4930734;28;20599;-77
2021/01/11 05:12:59;;;;;;;86.25;47.60;;;;;;;3.45;95.53;101961.50;4936580;28;20031;-76
2021/01/11 05:15:26;;;;;;;86.57;46.92;;;;;;;3.12;95.42;101921.84;4941509;28;20530;-77
2021/01/11 05:17:51;;;;;;;85.57;46.70;;;;;;;3.44;95.84;101975.59;4940157;28;20260;-73
2021/01/11 05:20:25;;;;;;;82.68;46.33;;;;;;;3.30;95.56;101938.53;4934142;28;20046;-77
2021/01/11 05:22:52;;;;;;;80.70;44.83;;;;;;;3.49;95.97;101978.88;4920956;29;20039;-74
2021/01/11 05:25:19;;;;;;;67.70;40.72;;;;;;;3.25;95.34;101935.28;4939260;28;20027;-77
2021/01/11 05:27:45;;;;;;;73.20;41.92;;;;;;;3.46;95.76;101973.75;4919490;28;20165;-77
2021/01/11 05:30:28;;;;;;;68.68;40.25;;;;;;;3.45;95.77;101956.22;4939291;28;20449;-77
2021/01/11 05:32:54;;;;;;;66.75;38.90;;;;;;;3.47;95.85;101964.91;4923294;28;20027;-78
2021/01/11 05:35:23;;;;;;;66.35;39.67;;;;;;;3.49;95.76;101978.00;4938421;28;20037;-78
2021/01/11 05:37:49;;;;;;;65.20;40.05;;;;;;;3.48;95.60;101969.25;4922065;28;20054;-77
2021/01/11 05:40:15;;;;;;;62.65;38.58;;;;;;;3.48;96.04;101965.75;4940125;28;20097;-77
2021/01/11 05:42:42;;;;;;;65.50;40.30;;;;;;;3.46;95.92;101967.63;4939286;28;20035;-77
2021/01/11 05:45:28;;;;;;;67.90;41.50;;;;;;;3.39;95.77;101961.81;4936393;28;20027;-77
2021/01/11 05:48:00;;;;;;;69.95;43.08;;;;;;;3.34;95.66;101945.34;4917075;28;20513;-77
2021/01/11 05:50:30;;;;;;;74.32;45.20;;;;;;;3.22;95.82;101926.59;4937827;28;20077;-78
2021/01/11 05:52:56;;;;;;;79.45;45.40;;;;;;;3.50;95.85;101953.31;4954027;28;20049;-77
2021/01/11 05:55:23;;;;;;;74.40;44.75;;;;;;;3.35;95.47;101918.03;4940373;28;20114;-79
2021/01/11 05:57:53;;;;;;;75.72;45.25;;;;;;;3.37;95.74;101922.28;4937512;28;20035;-77
2021/01/11 06:00:23;;;;;;;77.88;45.40;;;;;;;3.48;95.06;101944.63;4941071;28;20036;-78
2021/01/11 06:02:49;;;;;;;72.07;44.47;;;;;;;3.27;95.71;101913.16;4939510;28;20094;-78
2021/01/11 06:05:18;;;;;;;68.68;42.20;;;;;;;3.42;95.88;101931.78;4941597;28;20050;-77
2021/01/11 06:07:46;;;;;;;75.35;44.58;;;;;;;3.30;95.72;101910.38;4943754;28;20054;-77
2021/01/11 06:10:14;;;;;;;70.60;43.63;;;;;;;3.17;95.38;101882.91;4941468;28;20070;-77
2021/01/11 06:12:40;;;;;;;;;;;;;;;3.52;95.75;101925.06;4937976;28;20394;-78
2021/01/11 06:15:28;;;;;;;67.90;41.15;;;;;;;3.49;95.54;101919.94;4944627;28;20231;-78
2021/01/11 06:17:54;;;;;;;66.68;39.28;;;;;;;3.44;95.42;101900.88;4942768;28;20126;-79
2021/01/11 06:20:24;;;;;;;63.35;40.20;;;;;;;3.49;95.95;101899.69;4927156;29;20035;-78
2021/01/11 06:22:50;;;;;;;58.88;39.17;;;;;;;3.53;95.60;101917.06;4942948;28;20026;-78
2021/01/11 06:25:18;;;;;;;56.28;37.95;;;;;;;3.57;95.55;101915.13;4939749;28;20474;-78
2021/01/11 06:27:56;;;;;;;59.50;37.97;;;;;;;3.53;95.34;101903.03;4941938;28;20101;-78
2021/01/11 06:30:43;;;;;;;54.63;35.40;;;;;;;3.53;95.44;101901.22;4941419;28;20461;-78
2021/01/11 06:33:10;;;;;;;54.13;34.58;;;;;;;3.44;94.79;101892.97;4943783;28;20126;-78
2021/01/11 06:35:37;;;;;;;50.47;34.35;;;;;;;3.56;94.84;101915.19;4924780;29;20039;-77
2021/01/11 06:38:22;;;;;;;51.60;34.08;;;;;;;3.49;95.17;101897.06;4941642;28;20028;-77
2021/01/11 06:40:53;;;;;;;47.33;31.27;;;;;;;3.49;94.67;101880.34;4942953;28;20055;-77
2021/01/11 06:43:20;;;;;;;46.60;31.00;;;;;;;3.53;94.42;101876.63;4951129;28;20524;-77
2021/01/11 06:45:46;;;;;;;45.65;31.08;;;;;;;3.39;94.48;101858.91;4924613;29;20471;-77
2021/01/11 06:48:16;;;;;;;46.92;31.15;;;;;;;3.39;94.76;101864.19;4941023;28;20050;-77
2021/01/11 06:50:43;;;;;;;46.58;30.77;;;;;;;3.50;94.95;101874.16;4937960;28;20360;-77
2021/01/11 06:53:09;;;;;;;45.95;30.25;;;;;;;3.31;95.12;101838.19;4953356;28;20047;-77
2021/01/11 06:55:34;;;;;;;45.63;31.20;;;;;;;3.48;94.77;101871.59;4938031;28;20533;-77
2021/01/11 06:58:00;;;;;;;45.50;28.88;;;;;;;3.40;94.92;101842.09;4941697;28;20457;-77
2021/01/11 07:00:47;;;;;;;40.55;29.55;;;;;;;3.51;95.16;101858.25;4939443;28;20031;-77
2021/01/11 07:03:12;;;;;;;39.10;28.33;;;;;;;3.46;95.05;101856.78;4933075;28;20027;-78
2021/01/11 07:05:38;;;;;;;42.47;28.10;;;;;;;3.48;94.95;101845.22;4920862;29;20133;-78
2021/01/11 07:08:18;;;;;;;36.75;25.40;;;;;;;3.51;94.46;101852.97;4937094;28;20110;-77
2021/01/11 07:10:44;;;;;;;43.55;27.38;;;;;;;3.51;94.88;101855.59;4934924;28;20126;-78
2021/01/11 07:13:18;;;;;;;39.05;27.38;;;;;;;3.50;95.08;101853.03;4938823;28;20404;-78
2021/01/11 07:15:56;;;;;;;35.53;25.77;;;;;;;3.50;95.19;101837.19;4942759;28;20043;-78
2021/01/11 07:18:37;;;;;;;36.40;24.55;;;;;;;3.53;94.43;101837.03;4945584;29;20042;-78
2021/01/11 07:21:19;;;;;;;36.22;24.65;;;;;;;3.48;94.84;101857.53;4946905;29;20542;-80
2021/01/11 07:23:45;;;;;;;34.85;25.17;;;;;;;2.95;94.83;101783.78;4955473;28;20166;-81
2021/01/11 07:26:12;;;;;;;40.17;26.02;;;;;;;3.53;94.62;101868.72;4935185;28;20046;-80
2021/01/11 07:28:37;;;;;;;36.08;25.98;;;;;;;3.56;94.55;101860.63;4930757;28;20023;-81
2021/01/11 07:31:03;;;;;;;34.88;24.85;;;;;;;3.51;94.31;101865.28;4943315;28;20135;-80
2021/01/11 07:33:28;;;;;;;35.78;25.60;;;;;;;3.33;94.33;101838.09;4942726;28;20055;-80
2021/01/11 07:35:54;;;;;;;37.40;25.58;;;;;;;2.85;94.84;101750.94;4940442;28;20524;-80
2021/01/11 07:38:19;;;;;;;36.00;27.02;;;;;;;3.32;94.91;101833.75;4936973;28;20239;-81
2021/01/11 07:40:45;;;;;;;37.25;26.45;;;;;;;3.58;94.51;101853.50;4938545;28;20035;-79
2021/01/11 07:43:10;;;;;;;38.47;26.13;;;;;;;3.55;94.44;101848.38;4941455;28;20409;-79
2021/01/11 07:45:36;;;;;;;36.42;26.65;;;;;;;3.59;94.29;101857.84;4955989;28;20027;-81
2021/01/11 07:48:02;;;;;;;42.85;29.30;;;;;;;3.56;94.00;101852.72;4934026;28;20514;-78
2021/01/11 07:50:28;;;;;;;40.72;28.35;;;;;;;3.50;94.00;101842.47;4947805;28;20186;-77
2021/01/11 07:52:57;;;;;;;40.00;27.75;;;;;;;3.57;94.25;101859.69;4922234;28;20035;-79
2021/01/11 07:55:29;;;;;;;41.17;28.10;;;;;;;3.53;94.04;101853.72;4934071;28;20027;-79
2021/01/11 07:58:04;;;;;;;43.85;29.77;;;;;;;3.51;94.88;101854.75;4950845;29;20536;-80
2021/01/11 08:00:30;;;;;;;41.15;28.38;;;;;;;3.47;94.33;101840.88;4924487;29;20074;-78
2021/01/11 08:02:55;;;;;;;44.40;28.48;;;;;;;3.34;94.27;101808.16;4949953;28;20055;-80
2021/01/11 08:05:24;;;;;;;38.67;28.60;;;;;;;3.50;94.10;101853.91;4933402;29;20146;-78
2021/01/11 08:07:54;;;;;;;39.88;28.63;;;;;;;3.55;93.60;101856.28;4946912;28;20035;-78
2021/01/11 08:10:23;;;;;;;45.17;28.65;;;;;;;3.50;93.92;101851.25;4947308;28;20027;-77
2021/01/11 08:12:48;;;;;;;40.00;27.70;;;;;;;3.50;93.95;101863.59;4951132;28;20031;-79
2021/01/11 08:15:14;;;;;;;40.05;28.85;;;;;;;3.49;94.02;101865.41;4943461;28;20532;-79
2021/01/11 08:17:43;;;;;;;44.22;29.00;;;;;;;3.16;93.58;101818.75;4948015;28;20110;-79
2021/01/11 08:20:09;;;;;;;40.30;27.75;;;;;;;3.42;94.43;101858.72;4933613;29;20027;-79
2021/01/11 08:22:34;;;;;;;39.90;28.13;;;;;;;3.47;94.22;101847.91;4947710;28;20051;-79
2021/01/11 08:25:00;;;;;;;38.15;26.75;;;;;;;3.49;93.74;101851.31;4948399;28;20074;-81
2021/01/11 08:27:46;;;;;;;39.25;27.85;;;;;;;3.45;94.07;101850.66;4946211;29;20111;-80
2021/01/11 08:30:13;;;;;;;39.40;27.42;;;;;;;3.51;93.97;101846.81;4938316;28;20392;-80
2021/01/11 08:32:39;;;;;;;39.97;26.90;;;;;;;3.42;93.95;101828.84;4936982;28;20039;-79
2021/01/11 08:35:11;;;;;;;39.33;27.13;;;;;;;3.38;93.81;101828.19;4936333;28;20532;-79
2021/01/11 08:37:36;;;;;;;36.75;25.67;;;;;;;3.51;93.75;101850.34;4928826;29;20398;-78
2021/01/11 08:40:09;;;;;;;36.75;26.48;;;;;;;3.51;94.42;101854.75;4944470;28;20118;-77
2021/01/11 08:42:36;;;;;;;33.70;24.90;;;;;;;3.54;93.37;101854.59;4943872;28;20127;-77
2021/01/11 08:45:23;;;;;;;34.88;25.58;;;;;;;3.54;93.54;101854.59;4940333;28;20035;-77
2021/01/11 08:47:57;;;;;;;33.55;25.02;;;;;;;3.08;93.55;101789.28;4932256;28;20284;-78
2021/01/11 08:50:23;;;;;;;36.13;24.35;;;;;;;3.50;93.84;101861.81;4956957;28;20051;-78
2021/01/11 08:52:50;;;;;;;31.63;24.05;;;;;;;3.53;94.12;101853.72;4944155;28;20502;-78
2021/01/11 08:55:16;;;;;;;36.33;24.88;;;;;;;3.58;94.00;101840.28;4936881;28;20103;-77
2021/01/11 08:57:46;;;;;;;31.77;22.60;;;;;;;3.59;93.55;101827.94;4943308;28;20049;-77
2021/01/11 09:00:13;;;;;;;32.83;23.08;;;;;;;3.58;94.25;101845.56;4929075;29;20556;-77
2021/01/11 09:02:48;;;;;;;32.42;23.60;;;;;;;3.61;93.69;101855.09;4941089;28;20042;-78
2021/01/11 09:05:16;;;;;;;33.33;23.15;;;;;;;3.37;93.63;101811.47;4905240;28;20031;-78
2021/01/11 09:07:42;;;;;;;35.08;23.83;;;;;;;3.39;94.08;101821.09;4938575;28;20031;-78
2021/01/11 09:10:27;;;;;;;32.33;22.80;;;;;;;3.33;94.52;101811.72;4939987;28;20455;-78
2021/01/11 09:12:53;;;;;;;32.00;22.13;;;;;;;3.65;94.12;101860.13;4922752;28;20097;-78
2021/01/11 09:15:27;;;;;;;34.17;22.10;;;;;;;3.63;93.77;101842.69;4935794;28;20035;-78
2021/01/11 09:18:04;;;;;;;29.10;21.63;;;;;;;3.70;93.82;101853.75;4940921;28;20407;-78
2021/01/11 09:20:30;;;;;;;31.95;21.58;;;;;;;3.70;93.84;101843.19;4939684;28;20070;-78
2021/01/11 09:22:56;;;;;;;30.75;21.23;;;;;;;3.46;93.91;101801.38;4936779;28;20118;-78
2021/01/11 09:25:22;;;;;;;29.67;21.33;;;;;;;3.71;93.46;101837.81;4921054;28;20035;-78
2021/01/11 09:27:48;;;;;;;29.88;20.55;;;;;;;3.81;93.94;101840.81;4921908;28;20031;-77
2021/01/11 09:30:15;;;;;;;28.23;19.58;;;;;;;3.88;93.16;101842.16;4921986;28;20031;-77
2021/01/11 09:32:44;;;;;;;27.52;20.20;;;;;;;3.76;93.10;101817.31;4935707;28;20038;-78
2021/01/11 09:35:12;;;;;;;25.33;18.85;;;;;;;3.92;92.59;101827.03;4919945;28;20041;-77
2021/01/11 09:37:37;;;;;;;30.10;20.87;;;;;;;3.93;93.15;101842.78;4930761;28;20027;-78
2021/01/11 09:40:03;;;;;;;27.10;20.30;;;;;;;3.90;92.98;101848.22;4938423;28;20066;-78
2021/01/11 09:42:29;;;;;;;27.42;19.70;;;;;;;3.74;92.97;101820.94;4922710;29;20250;-77
2021/01/11 09:44:54;;;;;;;28.27;18.85;;;;;;;3.84;93.01;101830.09;4938246;28;20042;-77
2021/01/11 09:47:22;;;;;;;23.85;18.23;;;;;;;3.91;92.55;101838.53;4940452;28;20073;-78
2021/01/11 09:49:47;;;;;;;27.17;18.80;;;;;;;3.77;92.53;101802.31;4936478;28;20055;-78
2021/01/11 09:52:13;;;;;;;26.60;18.77;;;;;;;3.95;93.17;101848.84;4941108;28;20035;-77
2021/01/11 09:54:38;;;;;;;27.20;18.10;;;;;;;4.00;93.12;101840.66;4938085;28;20042;-74
2021/01/11 09:57:04;;;;;;;30.70;17.63;;;;;;;4.04;92.58;101843.97;4933172;28;20536;-78
2021/01/11 09:59:30;;;;;;;25.95;17.63;;;;;;;4.01;92.46;101836.19;4937085;28;20130;-78
2021/01/11 10:01:55;;;;;;;23.90;16.98;;;;;;;3.99;92.58;101833.66;4940145;28;21812;-79
2021/01/11 10:04:21;;;;;;;22.90;17.13;;;;;;;3.96;92.72;101839.97;4940517;28;20560;-79
2021/01/11 10:06:54;;;;;;;22.85;17.70;;;;;;;3.94;93.04;101820.72;4954070;28;20954;-79
2021/01/11 10:09:20;;;;;;;22.90;17.40;;;;;;;4.07;93.36;101830.59;4905637;28;20569;-79
2021/01/11 10:11:47;;;;;;;20.75;16.40;;;;;;;4.05;92.43;101835.97;4931150;28;20061;-78
2021/01/11 10:14:13;;;;;;;20.83;15.88;;;;;;;3.96;92.35;101800.34;4920295;29;20059;-78
2021/01/11 10:16:39;;;;;;;23.80;15.93;;;;;;;4.10;92.84;101830.41;4952065;28;20110;-78
2021/01/11 10:19:04;;;;;;;23.27;17.02;;;;;;;3.84;92.47;101790.47;4939351;28;20285;-78
2021/01/11 10:21:30;;;;;;;23.08;17.20;;;;;;;4.13;92.74;101824.97;4945371;28;20059;-78
2021/01/11 10:23:55;;;;;;;21.35;16.15;;;;;;;4.12;92.73;101825.91;4949414;28;20102;-78
2021/01/11 10:26:21;;;;;;;20.75;16.15;;;;;;;3.83;92.08;101773.78;4927383;29;20050;-78
2021/01/11 10:28:49;;;;;;;23.73;17.05;;;;;;;3.98;93.07;101806.41;4937662;28;20389;-78
2021/01/11 10:31:15;;;;;;;20.00;16.17;;;;;;;4.06;92.68;101824.47;4923028;28;20031;-78
2021/01/11 10:33:41;;;;;;;20.70;16.42;;;;;;;4.11;93.22;101811.84;4938315;28;21036;-78
2021/01/11 10:36:07;;;;;;;23.13;15.70;;;;;;;3.72;92.83;101749.75;4939079;28;20041;-78
2021/01/11 10:38:32;;;;;;;22.00;15.70;;;;;;;4.09;92.38;101797.00;4937412;28;20142;-78
2021/01/11 10:40:58;;;;;;;22.25;15.63;;;;;;;4.02;92.58;101770.09;4939513;28;20126;-78
2021/01/11 10:43:23;;;;;;;19.08;14.82;;;;;;;4.27;92.89;101792.47;4943088;29;20118;-77
2021/01/11 10:45:49;;;;;;;19.17;14.88;;;;;;;4.26;92.19;101778.41;4946022;28;20150;-77
2021/01/11 10:48:15;;;;;;;19.58;14.68;;;;;;;4.28;92.46;101779.16;4961512;28;20571;-78
2021/01/11 10:50:40;;;;;;;21.08;14.98;;;;;;;4.33;92.34;101772.75;4907538;28;20594;-78
2021/01/11 10:53:06;;;;;;;20.08;14.95;;;;;;;4.18;92.14;101741.00;4945019;28;20553;-78
2021/01/11 10:55:31;;;;;;;21.83;15.25;;;;;;;4.45;91.49;101766.75;4942143;29;20039;-78
2021/01/11 10:57:57;;;;;;;18.40;13.95;;;;;;;4.43;91.49;101765.97;4944970;29;20031;-78
2021/01/11 11:00:22;;;;;;;18.40;14.60;;;;;;;4.46;91.13;101763.16;4947025;28;20122;-78
2021/01/11 11:02:49;;;;;;;20.90;14.23;;;;;;;4.53;91.36;101753.06;4940145;28;20114;-78
2021/01/11 11:05:15;;;;;;;20.77;14.75;;;;;;;4.49;90.89;101747.13;4929879;29;20469;-77
2021/01/11 11:07:40;;;;;;;19.27;14.25;;;;;;;4.49;91.09;101747.13;4946954;28;20031;-78
2021/01/11 11:10:06;;;;;;;18.98;12.90;;;;;;;4.51;90.55;101742.59;4948484;28;20581;-77
2021/01/11 11:12:32;;;;;;;18.25;13.43;;;;;;;4.51;90.22;101733.81;4929947;28;20039;-78
2021/01/11 11:14:59;;;;;;;18.67;13.18;;;;;;;4.49;90.98;101733.91;4938325;28;20038;-78
2021/01/11 11:17:28;;;;;;;20.02;12.85;;;;;;;4.51;90.32;101734.69;4946869;28;20035;-77
2021/01/11 11:19:54;;;;;;;19.20;12.98;;;;;;;4.52;89.94;101735.50;4945077;28;20259;-77
2021/01/11 11:22:19;;;;;;;18.02;12.85;;;;;;;4.46;90.86;101723.50;4948638;28;20027;-77